ELNO2: N. Canadian River, El Reno, OK

Data processed at Wed May 22 2019 23:50


All information presented herein is the property of the government of the United States of America and may be revised or deleted at any time without prior notice.
Dissemination of this information without the expressed written consent of the Public Affairs Office, Tulsa District U.S. Army Corps of Engineers is strictly prohibited.
These data are gathered electronically and, as presented, have not undergone any form of quality control. These data are not guaranteed to be valid or correct.
Go to home page.
Go to station list.
Go to home page.

Upstream stations:

Downstream station:
Previous Day
Next Day
Current Day
    
SHEF ID:       ELNO2     North Canadian River near El Ren
STATION TYPE:  
Regulating: Stage =    10.00, Flow =     2348

               PRECIP     STAGE  STAGE(2)  RIV-FLOW  WTR-TEMP   CONDUCT  BAT-LOAD
                   in        ft        ft       cfs         F   umho/cm      volt
              Ccp-Rev   Ccp-Rev   Ccp-Rev   Ccp-Rev   Ccp-Rev   Ccp-Rev   Ccp-Rev
(US/Central)
05/22 00:00      0.00     16.84      ----      7497     66.06       301     12.65
05/22 01:00      0.00     16.75      ----      7414     65.82       299     12.65
05/22 02:00      0.00     16.55      ----      7228     65.59       302     12.65
05/22 03:00      0.00     16.41      ----      7098     65.35       307     12.65
05/22 04:00      0.00     16.13      ----      6842     65.14       316     12.65
05/22 05:00      0.00     15.81      ----      6554     64.94       321     12.57
05/22 06:00      0.00     15.57      ----      6342     64.78       326     12.57
05/22 07:00      0.00     15.42      ----      6212     64.65       334     12.57
05/22 08:00      0.00     15.11      ----      5945     64.58       338     12.65
05/22 09:00      0.00     14.82      ----      5701     64.56       344     13.29
05/22 10:00      0.00     14.48      ----      5424     64.60       349     13.53
05/22 11:00      0.00     14.18      ----      5188     64.63       353     13.60
05/22 12:00      0.00     13.97      ----      5026     64.81       352     13.68
05/22 13:00      0.00     13.69      ----      4814     65.01       360     13.60
05/22 14:00      0.00     13.45      ----      4633     65.16       363     13.60
05/22 15:00      0.00     13.16      ----      4419     65.43       367     13.68
05/22 16:00      0.00     12.99      ----      4295     65.70       370     13.68
05/22 17:00      0.00     12.83      ----      4180     66.02       375     13.68
05/22 18:00      0.00     12.61      ----      4025     66.29       378     13.60
05/22 19:00      0.00     12.58      ----      4004     66.51       381     13.44
05/22 20:00      0.00     12.54      ----      3976     66.67       383     13.29
05/22 21:00      0.00     12.44      ----      3906     66.79       384     12.81
05/22 22:00      0.00     12.30      ----      3807     66.96       384     12.73
05/22 23:00      0.00     12.24      ----      3764     67.08       385     12.73